Time;durP1;ratioP1;P1;durP2;ratioP2;P2;SDS_P1;SDS_P2;PMS_P1;PMS_P2;Temp;Humidity;BMP_temperature;BMP_pressure;BME280_temperature;BME280_humidity;BME280_pressure;Samples;Min_cycle;Max_cycle;Signal;HPM_P1;HPM_P2
2022/12/25 00:02:08;;;;;;;171.97;75.17;;;7.30;99.90;;;;;;5050433;28;20229;-52
2022/12/25 00:04:36;;;;;;;43.17;29.37;;;7.30;99.90;;;;;;5050469;28;20779;-52
2022/12/25 00:07:04;;;;;;;48.90;29.57;;;7.40;99.90;;;;;;5050065;28;20257;-54
2022/12/25 00:09:32;;;;;;;127.87;36.73;;;7.40;99.90;;;;;;5050129;28;20221;-52
2022/12/25 00:12:02;;;;;;;33.97;21.50;;;7.40;99.90;;;;;;5050467;28;20251;-52
2022/12/25 00:14:30;;;;;;;101.90;41.33;;;7.40;99.90;;;;;;5049558;28;20355;-52
2022/12/25 00:16:58;;;;;;;63.17;29.80;;;7.50;99.90;;;;;;5050563;28;20713;-52
2022/12/25 00:19:26;;;;;;;41.73;20.17;;;7.50;99.90;;;;;;5050579;28;20217;-52
2022/12/25 00:21:54;;;;;;;167.50;63.90;;;7.50;99.90;;;;;;5050466;28;20285;-52
2022/12/25 00:24:22;;;;;;;305.57;96.00;;;7.50;99.90;;;;;;5049503;28;20230;-52
2022/12/25 00:26:50;;;;;;;189.33;52.57;;;7.50;99.90;;;;;;5049495;28;20303;-52
2022/12/25 00:29:20;;;;;;;51.53;29.80;;;7.50;99.90;;;;;;5050356;28;20205;-52
2022/12/25 00:31:48;;;;;;;39.40;23.03;;;7.50;99.90;;;;;;5045426;28;20244;-51
2022/12/25 00:34:16;;;;;;;39.60;23.23;;;7.50;99.90;;;;;;5050250;28;20309;-52
2022/12/25 00:36:44;;;;;;;165.70;44.03;;;7.60;99.90;;;;;;5049672;28;20229;-52
2022/12/25 00:39:12;;;;;;;88.20;32.27;;;7.60;99.90;;;;;;5050081;28;20228;-52
2022/12/25 00:44:28;;;;;;;384.43;90.33;;;7.60;99.90;;;;;;5048441;28;20310;-52
2022/12/25 00:46:56;;;;;;;142.30;56.30;;;7.60;99.90;;;;;;5034516;28;20316;-51
2022/12/25 00:49:24;;;;;;;158.20;51.13;;;7.60;99.90;;;;;;5050406;28;20363;-52
2022/12/25 00:51:53;;;;;;;54.83;25.57;;;7.60;99.90;;;;;;5048503;28;20201;-52
2022/12/25 00:54:21;;;;;;;476.50;123.70;;;7.60;99.90;;;;;;5049458;28;20699;-52
2022/12/25 00:56:49;;;;;;;311.13;88.30;;;7.60;99.90;;;;;;5049571;28;20201;-52
2022/12/25 00:59:17;;;;;;;73.73;32.40;;;7.60;99.90;;;;;;5049539;28;20201;-51
2022/12/25 01:01:47;;;;;;;96.50;26.47;;;7.70;99.90;;;;;;5048929;28;20260;-52
2022/12/25 01:04:15;;;;;;;64.07;24.87;;;7.70;99.90;;;;;;5049640;28;20268;-52
2022/12/25 01:06:43;;;;;;;314.93;81.67;;;7.70;99.90;;;;;;5047828;28;20310;-52
2022/12/25 01:11:57;;;;;;;392.70;106.57;;;7.80;99.90;;;;;;5049472;28;20229;-52
2022/12/25 01:14:25;;;;;;;121.97;29.57;;;7.70;99.90;;;;;;5049153;28;20260;-52
2022/12/25 01:16:54;;;;;;;464.70;123.57;;;7.70;99.90;;;;;;5049600;28;20202;-51
2022/12/25 01:19:22;;;;;;;127.37;31.10;;;7.70;99.90;;;;;;5048985;28;20592;-52
2022/12/25 01:21:50;;;;;;;149.37;46.97;;;7.70;99.90;;;;;;5049175;28;20730;-52
2022/12/25 01:24:18;;;;;;;151.27;34.67;;;7.70;99.90;;;;;;5049275;28;20228;-52
2022/12/25 01:26:47;;;;;;;406.27;122.97;;;7.70;99.90;;;;;;5049405;28;20673;-52
2022/12/25 01:29:15;;;;;;;442.87;150.60;;;7.70;99.90;;;;;;5049474;28;20288;-52
2022/12/25 01:31:43;;;;;;;166.13;47.63;;;7.80;99.90;;;;;;5049685;28;20339;-52
2022/12/25 01:34:12;;;;;;;93.03;38.33;;;7.80;99.90;;;;;;5037866;28;20314;-52
2022/12/25 01:36:40;;;;;;;179.13;54.30;;;7.80;99.90;;;;;;5047138;28;20701;-52
2022/12/25 01:39:09;;;;;;;261.63;71.23;;;7.80;99.90;;;;;;5049525;28;20725;-52
2022/12/25 01:41:37;;;;;;;175.57;41.93;;;7.80;99.90;;;;;;5048734;28;20240;-52
2022/12/25 01:44:07;;;;;;;231.00;56.63;;;7.70;99.90;;;;;;5049024;28;20229;-52
2022/12/25 01:46:36;;;;;;;171.10;41.13;;;7.70;99.90;;;;;;5048774;28;20218;-52
2022/12/25 01:49:07;;;;;;;127.27;40.00;;;7.70;99.90;;;;;;5049259;28;20247;-52
2022/12/25 01:51:40;;;;;;;180.33;40.07;;;7.80;99.90;;;;;;5048865;28;20271;-52
2022/12/25 01:54:12;;;;;;;142.97;39.37;;;7.70;99.90;;;;;;5048513;28;20229;-52
2022/12/25 01:56:42;;;;;;;196.50;49.93;;;7.70;99.90;;;;;;5049346;28;20205;-52
2022/12/25 01:59:13;;;;;;;254.50;56.17;;;7.80;99.90;;;;;;5049173;28;20213;-52
2022/12/25 02:01:41;;;;;;;125.40;30.07;;;7.80;99.90;;;;;;5048941;28;20279;-52
2022/12/25 02:04:17;;;;;;;154.37;30.73;;;7.80;99.90;;;;;;5049051;28;20248;-52
2022/12/25 02:06:47;;;;;;;129.93;34.67;;;7.80;99.90;;;;;;5048707;28;20967;-52
2022/12/25 02:09:16;;;;;;;321.77;71.97;;;7.90;99.90;;;;;;5048831;28;20264;-52
2022/12/25 02:11:56;;;;;;;506.87;129.43;;;7.90;99.90;;;;;;5048847;28;20674;-52
2022/12/25 02:14:25;;;;;;;169.90;42.57;;;7.90;99.90;;;;;;5044939;28;20252;-52
2022/12/25 02:16:59;;;;;;;133.27;43.40;;;7.90;99.90;;;;;;5048803;28;20666;-52
2022/12/25 02:19:51;;;;;;;238.67;45.70;;;7.90;99.90;;;;;;5035650;28;20221;-52
2022/12/25 02:22:33;;;;;;;231.07;48.17;;;8.00;99.90;;;;;;5048842;28;20701;-53
2022/12/25 02:25:14;;;;;;;150.53;40.60;;;8.00;99.90;;;;;;5048984;28;20205;-52
2022/12/25 02:28:00;;;;;;;258.20;46.17;;;8.00;99.90;;;;;;5043646;28;20761;-52
2022/12/25 02:30:35;;;;;;;423.80;51.80;;;7.90;99.90;;;;;;5034974;28;20210;-54
2022/12/25 02:35:56;;;;;;;403.60;68.10;;;7.90;99.90;;;;;;5048683;28;20256;-54
2022/12/25 02:38:31;;;;;;;207.47;40.63;;;7.90;99.90;;;;;;5048875;28;20233;-52
2022/12/25 02:41:07;;;;;;;287.50;44.70;;;7.90;99.90;;;;;;5048890;28;20212;-52
2022/12/25 03:11:56;;;;;;;263.37;59.13;;;8.10;99.90;;;;;;5051781;28;20209;-52
2022/12/25 03:17:20;;;;;;;258.97;58.70;;;8.00;99.90;;;;;;5015795;28;20237;-53
2022/12/25 03:28:07;;;;;;;246.47;50.63;;;8.00;99.90;;;;;;5051754;28;20668;-53
2022/12/25 03:33:35;;;;;;;266.30;84.43;;;8.00;99.90;;;;;;5051357;28;20268;-51
2022/12/25 03:36:17;;;;;;;191.57;43.13;;;8.10;99.90;;;;;;5047057;28;20238;-52
2022/12/25 04:37:42;;;;;;;50.37;27.53;;;8.40;99.90;;;;;;5050452;28;20205;-52
2022/12/25 04:40:11;;;;;;;207.10;75.87;;;8.50;99.90;;;;;;5050304;28;20290;-52
2022/12/25 04:42:40;;;;;;;59.17;30.53;;;8.50;99.90;;;;;;5050177;28;20205;-53
2022/12/25 04:45:09;;;;;;;112.07;55.70;;;8.50;99.90;;;;;;5049867;28;20750;-53
2022/12/25 04:47:37;;;;;;;413.97;140.63;;;8.50;99.90;;;;;;5050437;28;20217;-52
2022/12/25 04:50:07;;;;;;;85.60;40.47;;;8.50;99.90;;;;;;5049332;28;20210;-52
2022/12/25 04:52:36;;;;;;;130.27;65.97;;;8.60;99.90;;;;;;5050072;28;20237;-52
2022/12/25 04:55:05;;;;;;;63.83;35.97;;;8.60;99.90;;;;;;5049959;28;20902;-54
2022/12/25 04:57:35;;;;;;;143.17;42.07;;;8.60;99.90;;;;;;5049660;28;20210;-51
2022/12/25 05:00:04;;;;;;;104.73;40.23;;;8.60;99.90;;;;;;5049715;28;20212;-52
2022/12/25 05:02:33;;;;;;;483.90;167.30;;;8.60;99.90;;;;;;5050014;28;20214;-52
2022/12/25 05:05:01;;;;;;;325.87;89.60;;;8.60;99.90;;;;;;5049884;28;20268;-51
2022/12/25 05:07:29;;;;;;;328.90;100.90;;;8.60;99.90;;;;;;5049257;28;20297;-50
2022/12/25 05:09:58;;;;;;;70.80;30.07;;;8.60;99.90;;;;;;5049697;28;20248;-51
2022/12/25 05:12:26;;;;;;;54.80;35.60;;;8.50;99.90;;;;;;5047480;28;20659;-53
2022/12/25 05:14:55;;;;;;;64.20;28.80;;;8.50;99.90;;;;;;5049431;28;20671;-53
2022/12/25 05:17:23;;;;;;;74.87;33.37;;;8.50;99.90;;;;;;5049505;28;20317;-52
2022/12/25 05:19:51;;;;;;;326.47;106.93;;;8.50;99.90;;;;;;5049447;28;20210;-52
2022/12/25 05:22:19;;;;;;;157.43;42.33;;;8.50;99.90;;;;;;5049715;28;20221;-52
2022/12/25 05:24:47;;;;;;;75.67;33.70;;;8.50;99.90;;;;;;5048831;28;20259;-52
2022/12/25 05:27:16;;;;;;;231.07;81.10;;;8.50;99.90;;;;;;5044349;28;20254;-53
2022/12/25 05:29:44;;;;;;;51.13;28.07;;;8.50;99.90;;;;;;5045606;28;20722;-52
2022/12/25 05:32:14;;;;;;;134.67;44.20;;;8.50;99.90;;;;;;5049457;28;20205;-53
2022/12/25 05:34:42;;;;;;;83.30;32.63;;;8.60;99.90;;;;;;5048690;28;20229;-53
2022/12/25 05:37:10;;;;;;;463.40;132.23;;;8.60;99.90;;;;;;5049060;28;20231;-52
2022/12/25 05:39:38;;;;;;;653.30;206.17;;;8.50;99.90;;;;;;5049160;28;20260;-54
2022/12/25 05:42:06;;;;;;;122.13;57.77;;;8.50;99.90;;;;;;5049397;28;20237;-52
2022/12/25 05:44:34;;;;;;;181.93;53.37;;;8.50;99.90;;;;;;5048978;28;20299;-52
2022/12/25 05:47:02;;;;;;;619.10;166.57;;;8.60;99.90;;;;;;5048822;28;20293;-53
2022/12/25 05:49:32;;;;;;;144.40;51.97;;;8.60;99.90;;;;;;5048874;28;20226;-52
2022/12/25 05:52:00;;;;;;;835.00;300.80;;;8.60;99.90;;;;;;5049064;28;20316;-52
2022/12/25 05:54:28;;;;;;;678.57;201.63;;;8.60;99.90;;;;;;5049318;28;20235;-52
2022/12/25 05:56:56;;;;;;;352.73;89.27;;;8.60;99.90;;;;;;5049300;28;20279;-53
2022/12/25 05:59:24;;;;;;;177.73;58.00;;;8.60;99.90;;;;;;5048816;28;20296;-53
2022/12/25 06:01:52;;;;;;;239.83;60.50;;;8.50;99.90;;;;;;5048945;28;20248;-52
2022/12/25 06:04:20;;;;;;;53.60;29.37;;;8.60;99.90;;;;;;5048700;28;20233;-51
2022/12/25 06:06:50;;;;;;;167.13;45.43;;;8.60;99.90;;;;;;5049005;28;20238;-52
2022/12/25 06:09:18;;;;;;;478.73;97.07;;;8.60;99.90;;;;;;5048195;28;20337;-52
2022/12/25 06:11:46;;;;;;;238.83;44.80;;;8.60;99.90;;;;;;5048749;28;20263;-52
2022/12/25 06:14:15;;;;;;;237.60;65.47;;;8.60;99.90;;;;;;5048360;28;20264;-52
2022/12/25 06:16:43;;;;;;;346.20;87.53;;;8.60;99.90;;;;;;5045812;28;20255;-52
2022/12/25 06:19:12;;;;;;;845.10;154.83;;;8.60;99.90;;;;;;5048711;28;20194;-52
2022/12/25 06:21:40;;;;;;;528.90;122.60;;;8.60;99.90;;;;;;5047538;28;20283;-52
2022/12/25 06:24:09;;;;;;;142.73;53.47;;;8.60;99.90;;;;;;5051854;28;20586;-52
2022/12/25 06:26:44;;;;;;;433.70;126.07;;;8.50;99.90;;;;;;5050613;28;20205;-52
2022/12/25 06:29:12;;;;;;;199.57;58.67;;;8.60;99.90;;;;;;5044864;28;20338;-51
2022/12/25 06:31:40;;;;;;;418.37;141.93;;;8.60;99.90;;;;;;5037601;28;20735;-52
2022/12/25 06:34:09;;;;;;;265.37;64.77;;;8.60;99.90;;;;;;5033675;28;20217;-52
2022/12/25 06:36:38;;;;;;;243.67;57.20;;;8.60;99.90;;;;;;5032094;28;20249;-52
2022/12/25 06:39:06;;;;;;;110.57;34.80;;;8.60;99.90;;;;;;5037971;28;20621;-52
2022/12/25 06:41:36;;;;;;;291.73;69.47;;;8.60;99.90;;;;;;5033370;28;20257;-52
2022/12/25 06:44:04;;;;;;;133.03;40.63;;;8.70;99.90;;;;;;5050137;28;20230;-53
2022/12/25 06:46:32;;;;;;;199.67;53.77;;;8.70;99.90;;;;;;5050879;28;20300;-52
2022/12/25 06:49:00;;;;;;;237.13;67.27;;;8.70;99.90;;;;;;5049886;28;20256;-53
2022/12/25 06:51:30;;;;;;;464.73;96.40;;;8.70;99.90;;;;;;5050905;28;20217;-52
2022/12/25 06:54:01;;;;;;;583.20;145.47;;;8.70;99.90;;;;;;5051187;28;20265;-52
2022/12/25 06:56:30;;;;;;;314.87;51.30;;;8.70;99.90;;;;;;5050683;28;20794;-54
2022/12/25 06:59:02;;;;;;;818.63;243.10;;;8.70;99.90;;;;;;5044837;28;20257;-52
2022/12/25 07:01:33;;;;;;;843.93;236.60;;;8.70;99.90;;;;;;5051654;28;20264;-54
2022/12/25 07:04:04;;;;;;;169.77;55.00;;;8.70;99.90;;;;;;5051377;28;20812;-52
2022/12/25 07:06:32;;;;;;;766.87;146.33;;;8.70;99.90;;;;;;5049818;28;20252;-52
2022/12/25 07:09:01;;;;;;;307.83;55.77;;;8.70;99.90;;;;;;5049603;28;20261;-52
2022/12/25 07:11:29;;;;;;;522.63;84.37;;;8.70;99.90;;;;;;5050967;28;20205;-52
2022/12/25 07:13:57;;;;;;;407.07;104.60;;;8.70;99.90;;;;;;5050567;28;20257;-51
2022/12/25 07:16:26;;;;;;;253.63;62.07;;;8.70;99.90;;;;;;5051838;28;20340;-52
2022/12/25 07:18:55;;;;;;;372.63;99.73;;;8.70;99.90;;;;;;5051576;28;20213;-52
2022/12/25 07:21:23;;;;;;;56.13;35.57;;;8.70;99.90;;;;;;5050711;28;20245;-53
2022/12/25 07:23:51;;;;;;;818.27;213.73;;;8.70;99.90;;;;;;5049749;28;20229;-53
2022/12/25 07:26:19;;;;;;;319.80;70.80;;;8.70;99.90;;;;;;5049434;28;20234;-51
2022/12/25 07:28:47;;;;;;;179.80;47.10;;;8.70;99.90;;;;;;5050113;28;20231;-52
2022/12/25 07:31:17;;;;;;;483.70;88.20;;;8.70;99.90;;;;;;5044545;28;20211;-52
2022/12/25 07:33:47;;;;;;;686.23;116.53;;;8.70;99.90;;;;;;5046615;28;20222;-53
2022/12/25 07:36:15;;;;;;;1432.47;413.73;;;8.70;99.90;;;;;;5043212;28;20241;-52
2022/12/25 07:38:43;;;;;;;356.97;72.03;;;8.70;99.90;;;;;;5051078;28;20241;-52
2022/12/25 07:41:12;;;;;;;410.23;104.97;;;8.70;99.90;;;;;;5047956;28;20389;-54
2022/12/25 07:43:41;;;;;;;456.20;98.33;;;8.70;99.90;;;;;;5045345;28;20279;-53
2022/12/25 07:46:09;;;;;;;556.13;132.37;;;8.70;99.90;;;;;;5050546;28;20206;-53
2022/12/25 07:48:38;;;;;;;1008.03;213.67;;;8.70;99.90;;;;;;5048502;28;20267;-53
2022/12/25 07:51:10;;;;;;;897.40;203.07;;;8.70;99.90;;;;;;5048006;28;20230;-52
2022/12/25 07:53:39;;;;;;;433.27;104.23;;;8.80;99.90;;;;;;5050746;28;20279;-52
2022/12/25 07:56:11;;;;;;;1460.27;264.77;;;8.70;99.90;;;;;;5050411;28;20854;-53
2022/12/25 07:58:40;;;;;;;1032.20;177.53;;;8.70;99.90;;;;;;5043512;28;20209;-53
2022/12/25 08:01:11;;;;;;;286.17;65.93;;;8.80;99.90;;;;;;5049034;28;20225;-52
2022/12/25 08:03:39;;;;;;;1557.23;276.50;;;8.80;99.90;;;;;;5047529;28;20229;-53
2022/12/25 08:06:11;;;;;;;825.53;139.23;;;8.90;99.90;;;;;;5044620;28;20210;-53
2022/12/25 08:08:40;;;;;;;1242.20;344.33;;;8.80;99.90;;;;;;5045594;28;20590;-53
2022/12/25 08:11:09;;;;;;;181.93;39.87;;;8.80;99.90;;;;;;5044776;28;20230;-53
2022/12/25 08:13:38;;;;;;;1050.77;156.97;;;8.90;99.90;;;;;;5049371;28;20653;-52
2022/12/25 08:16:08;;;;;;;327.97;71.57;;;8.80;99.90;;;;;;5048789;28;20244;-52
2022/12/25 08:18:37;;;;;;;1240.97;173.73;;;8.80;99.90;;;;;;5039158;28;20252;-52
2022/12/25 08:21:08;;;;;;;1180.20;278.97;;;8.90;99.90;;;;;;5049514;28;20201;-52
2022/12/25 08:23:39;;;;;;;1112.83;179.97;;;8.80;99.90;;;;;;5044785;28;20320;-52
2022/12/25 08:26:10;;;;;;;265.37;64.93;;;8.80;99.90;;;;;;5050193;28;20258;-52
2022/12/25 08:28:38;;;;;;;1037.73;217.50;;;8.90;99.90;;;;;;5047703;28;20240;-52
2022/12/25 08:31:08;;;;;;;1096.37;234.77;;;8.80;99.90;;;;;;5049670;28;20307;-51
2022/12/25 08:33:38;;;;;;;256.63;67.03;;;8.90;99.90;;;;;;5043444;28;20260;-52
2022/12/25 08:36:09;;;;;;;878.23;170.03;;;8.90;99.90;;;;;;5047311;28;20630;-52
2022/12/25 08:38:40;;;;;;;589.07;140.50;;;8.90;99.90;;;;;;5036580;28;20224;-51
2022/12/25 08:41:08;;;;;;;1615.97;271.93;;;8.90;99.90;;;;;;5041557;28;20206;-52
2022/12/25 08:43:36;;;;;;;1999.90;506.07;;;9.00;99.90;;;;;;5047406;28;20240;-51
2022/12/25 08:46:05;;;;;;;334.50;91.23;;;8.90;99.90;;;;;;5048955;28;20292;-52
2022/12/25 08:48:33;;;;;;;515.87;114.57;;;9.00;99.90;;;;;;5043823;28;20206;-52
2022/12/25 08:51:02;;;;;;;631.27;155.47;;;9.10;99.90;;;;;;5046895;28;20674;-53
2022/12/25 08:53:31;;;;;;;1210.77;236.67;;;9.10;99.90;;;;;;5043549;28;20881;-52
2022/12/25 08:56:03;;;;;;;811.30;135.30;;;9.10;99.90;;;;;;5048366;28;20263;-53
2022/12/25 08:58:32;;;;;;;742.87;148.83;;;9.10;99.90;;;;;;5041353;28;20264;-53
2022/12/25 09:01:00;;;;;;;702.40;137.60;;;9.10;99.90;;;;;;5045489;28;20240;-52
2022/12/25 09:03:30;;;;;;;798.30;186.37;;;9.10;99.90;;;;;;5038175;28;20230;-53
2022/12/25 09:06:03;;;;;;;1837.83;354.47;;;9.10;99.90;;;;;;5039798;28;20213;-51
2022/12/25 09:08:31;;;;;;;447.20;108.20;;;9.10;99.90;;;;;;5043053;28;20256;-52
2022/12/25 09:11:03;;;;;;;721.33;234.43;;;9.20;99.90;;;;;;5043080;28;20264;-52
2022/12/25 09:13:31;;;;;;;311.90;58.07;;;9.20;99.90;;;;;;5048595;28;20312;-52
2022/12/25 09:16:00;;;;;;;1288.20;318.60;;;9.30;99.90;;;;;;5041533;28;20297;-52
2022/12/25 09:18:28;;;;;;;1137.43;257.97;;;9.30;99.90;;;;;;5039861;28;20580;-52
2022/12/25 09:21:00;;;;;;;409.23;95.07;;;9.30;99.90;;;;;;5044377;28;20820;-53
2022/12/25 09:23:28;;;;;;;606.57;108.80;;;9.30;99.90;;;;;;5036710;28;20645;-52
2022/12/25 09:25:58;;;;;;;604.00;127.73;;;9.30;99.90;;;;;;5036431;28;20219;-52
2022/12/25 09:28:29;;;;;;;1109.17;244.47;;;9.30;99.90;;;;;;5036154;28;20589;-53
2022/12/25 09:30:57;;;;;;;1572.70;324.10;;;9.40;99.90;;;;;;5036750;28;20637;-52
2022/12/25 09:33:25;;;;;;;1999.90;369.60;;;9.30;99.90;;;;;;5038276;28;20261;-53
2022/12/25 09:35:54;;;;;;;1999.90;521.40;;;9.30;99.90;;;;;;5038431;28;20210;-53
2022/12/25 09:38:23;;;;;;;1331.30;305.83;;;9.20;99.90;;;;;;5040395;28;20211;-53
2022/12/25 09:40:59;;;;;;;1441.23;298.53;;;9.30;99.90;;;;;;5046632;28;20711;-52
2022/12/25 09:43:32;;;;;;;586.10;150.70;;;9.30;99.90;;;;;;5045773;28;20228;-53
2022/12/25 09:46:04;;;;;;;831.97;175.80;;;9.30;99.90;;;;;;5038096;28;20292;-51
2022/12/25 09:48:35;;;;;;;618.20;105.27;;;9.30;99.90;;;;;;5048105;28;20244;-52
2022/12/25 09:51:09;;;;;;;773.80;183.43;;;9.30;99.90;;;;;;5039482;28;20314;-53
2022/12/25 09:53:40;;;;;;;369.33;70.27;;;9.30;99.90;;;;;;5048938;28;20287;-54
2022/12/25 09:56:12;;;;;;;1999.90;329.47;;;9.30;99.90;;;;;;5033963;28;20628;-51
2022/12/25 09:58:42;;;;;;;933.73;187.37;;;9.30;99.90;;;;;;5035445;28;20289;-52
2022/12/25 10:01:19;;;;;;;692.27;129.67;;;9.30;99.90;;;;;;5047186;28;20224;-52
2022/12/25 10:04:13;;;;;;;507.27;94.53;;;9.30;99.90;;;;;;5036023;28;20230;-52
2022/12/25 10:06:53;;;;;;;432.70;89.63;;;9.30;99.90;;;;;;5047281;28;20207;-52
2022/12/25 10:09:34;;;;;;;1036.57;168.53;;;9.30;99.90;;;;;;5048408;28;20252;-52
2022/12/25 10:12:22;;;;;;;1815.20;442.43;;;9.30;99.90;;;;;;5048745;28;20229;-51
2022/12/25 10:15:15;;;;;;;374.30;100.43;;;9.30;99.90;;;;;;5045411;28;20241;-52
2022/12/25 10:17:57;;;;;;;1999.90;388.13;;;9.40;99.90;;;;;;5036483;28;20556;-52
2022/12/25 10:20:40;;;;;;;1240.87;270.33;;;9.30;99.90;;;;;;5046295;28;20659;-52
2022/12/25 10:23:15;;;;;;;1204.70;265.70;;;9.40;99.90;;;;;;5034452;28;20761;-52
2022/12/25 10:25:46;;;;;;;1962.50;349.53;;;9.40;99.90;;;;;;5030670;28;20643;-52
2022/12/25 10:28:18;;;;;;;1999.90;317.07;;;9.30;99.90;;;;;;5035023;28;20240;-52
2022/12/25 10:30:49;;;;;;;1999.90;311.50;;;9.30;99.90;;;;;;5030725;28;20220;-51
2022/12/25 10:33:18;;;;;;;608.90;127.47;;;9.30;99.90;;;;;;5034055;28;20235;-52
2022/12/25 10:35:46;;;;;;;671.37;125.57;;;9.30;99.90;;;;;;5030619;28;20238;-51
2022/12/25 10:38:16;;;;;;;940.73;203.40;;;9.40;99.90;;;;;;5033490;28;20344;-52
2022/12/25 10:40:55;;;;;;;117.77;36.10;;;9.50;99.90;;;;;;5031125;28;20587;-52
2022/12/25 10:43:29;;;;;;;1203.37;326.30;;;9.50;99.90;;;;;;5039533;28;20231;-52
2022/12/25 10:45:59;;;;;;;1055.50;191.57;;;9.50;99.90;;;;;;5036096;28;20269;-52
2022/12/25 10:48:30;;;;;;;1839.00;282.10;;;9.50;99.90;;;;;;5037464;28;20209;-52
2022/12/25 10:50:58;;;;;;;1999.90;415.80;;;9.50;99.90;;;;;;5042754;28;20698;-52
2022/12/25 10:53:28;;;;;;;1054.57;252.10;;;9.50;99.90;;;;;;5040236;28;20230;-51
2022/12/25 10:55:59;;;;;;;1421.20;314.67;;;9.60;99.90;;;;;;5034913;28;20202;-52
2022/12/25 10:58:27;;;;;;;1033.03;284.63;;;9.60;99.90;;;;;;5042388;28;20280;-52
2022/12/25 11:01:02;;;;;;;835.93;136.17;;;9.50;99.90;;;;;;5045303;28;20221;-52
2022/12/25 11:03:32;;;;;;;598.70;132.27;;;9.60;99.90;;;;;;5046654;28;20245;-52
2022/12/25 11:06:02;;;;;;;381.07;81.33;;;9.60;99.90;;;;;;5031191;28;20914;-52
2022/12/25 11:08:33;;;;;;;550.47;133.60;;;9.60;99.90;;;;;;5028627;28;20250;-52
2022/12/25 11:11:04;;;;;;;578.90;114.43;;;9.60;99.90;;;;;;5035792;28;20260;-52
2022/12/25 11:13:36;;;;;;;1725.17;307.43;;;9.70;99.90;;;;;;5034846;28;20601;-52
2022/12/25 11:16:09;;;;;;;954.43;158.83;;;9.70;99.90;;;;;;5031801;28;20256;-52
2022/12/25 11:18:46;;;;;;;519.23;115.50;;;9.70;99.90;;;;;;5035074;28;20200;-52
2022/12/25 11:21:17;;;;;;;1504.07;299.53;;;9.70;99.90;;;;;;5051013;28;20201;-52
2022/12/25 11:23:48;;;;;;;1199.90;288.67;;;9.70;99.90;;;;;;5042606;28;20230;-52
2022/12/25 11:26:17;;;;;;;1634.00;309.73;;;9.70;99.90;;;;;;5048347;28;20236;-52
2022/12/25 11:28:46;;;;;;;422.13;90.93;;;9.70;99.90;;;;;;5051080;28;20324;-52
2022/12/25 11:31:19;;;;;;;1113.97;273.83;;;9.70;99.90;;;;;;5049343;28;20325;-52
2022/12/25 11:33:53;;;;;;;709.40;187.40;;;9.70;99.90;;;;;;5046886;28;20809;-52
2022/12/25 11:36:28;;;;;;;249.13;67.17;;;9.70;99.90;;;;;;5048830;28;20275;-52
2022/12/25 11:39:01;;;;;;;278.00;60.27;;;9.70;99.90;;;;;;5048919;28;20208;-52
2022/12/25 11:41:34;;;;;;;1235.33;267.07;;;9.80;99.90;;;;;;5048997;28;20276;-52
2022/12/25 11:44:06;;;;;;;727.60;124.70;;;9.70;99.90;;;;;;5049330;28;20221;-52
2022/12/25 11:46:40;;;;;;;241.00;55.40;;;9.80;99.90;;;;;;5047867;28;20202;-52
2022/12/25 11:49:15;;;;;;;399.20;75.50;;;9.80;99.90;;;;;;5039519;28;20300;-52
2022/12/25 11:51:47;;;;;;;916.43;266.40;;;9.80;99.90;;;;;;5038096;28;20273;-52
2022/12/25 11:54:22;;;;;;;191.37;58.73;;;9.80;99.90;;;;;;5047545;28;20308;-52
2022/12/25 11:56:51;;;;;;;338.00;83.67;;;9.80;99.90;;;;;;5049924;28;20290;-51
2022/12/25 11:59:25;;;;;;;276.17;84.17;;;9.80;99.90;;;;;;5049125;28;20202;-52
2022/12/25 12:01:58;;;;;;;1142.40;315.67;;;9.80;99.90;;;;;;5049702;28;20205;-52
2022/12/25 12:04:31;;;;;;;436.73;98.23;;;9.80;99.90;;;;;;5049212;28;20279;-52
2022/12/25 12:07:16;;;;;;;200.33;58.23;;;9.80;99.90;;;;;;5051066;28;20202;-52
2022/12/25 12:09:51;;;;;;;405.60;94.13;;;9.80;99.90;;;;;;5050923;28;20202;-52
2022/12/25 12:12:26;;;;;;;59.27;33.07;;;9.90;99.90;;;;;;5046766;28;20243;-51
2022/12/25 12:15:01;;;;;;;247.17;69.10;;;9.90;99.90;;;;;;5036876;28;20288;-52
2022/12/25 12:17:32;;;;;;;535.00;152.87;;;9.90;99.90;;;;;;5050404;28;20205;-52
2022/12/25 12:20:11;;;;;;;497.50;138.70;;;9.90;99.90;;;;;;5049900;28;20241;-52
2022/12/25 12:22:48;;;;;;;54.47;39.03;;;9.90;99.90;;;;;;5049968;28;20202;-52
2022/12/25 12:25:18;;;;;;;228.53;53.77;;;9.90;99.90;;;;;;5033145;28;20206;-52
2022/12/25 12:27:52;;;;;;;495.13;142.03;;;9.90;99.90;;;;;;5049896;28;20305;-53
2022/12/25 12:30:27;;;;;;;546.43;150.00;;;9.90;99.90;;;;;;5050234;28;20215;-52
2022/12/25 12:32:59;;;;;;;379.90;104.53;;;9.90;99.90;;;;;;5045203;28;20764;-52
2022/12/25 12:35:30;;;;;;;258.77;74.00;;;9.90;99.90;;;;;;5050618;28;20223;-52
2022/12/25 12:38:02;;;;;;;671.17;82.03;;;9.90;99.90;;;;;;5050222;28;20267;-52
2022/12/25 12:40:34;;;;;;;373.67;83.80;;;10.00;99.90;;;;;;5050236;28;20248;-51
2022/12/25 12:43:02;;;;;;;182.27;57.37;;;10.00;99.90;;;;;;5048322;28;20295;-54
2022/12/25 12:45:34;;;;;;;796.70;154.67;;;10.00;99.90;;;;;;5046914;28;20270;-52
2022/12/25 12:48:14;;;;;;;603.23;166.87;;;10.00;99.90;;;;;;5043641;28;20271;-52
2022/12/25 12:50:42;;;;;;;755.23;130.87;;;10.00;99.90;;;;;;5049951;28;20691;-52
2022/12/25 12:53:28;;;;;;;307.43;69.87;;;10.00;99.90;;;;;;5049817;28;20809;-52
2022/12/25 12:55:56;;;;;;;849.20;152.60;;;10.00;99.90;;;;;;5041332;28;20327;-52
2022/12/25 12:58:29;;;;;;;1238.03;235.43;;;9.90;99.90;;;;;;5032179;28;20252;-52
2022/12/25 13:01:08;;;;;;;1366.90;391.37;;;10.00;99.90;;;;;;5044690;28;20243;-52
2022/12/25 13:04:00;;;;;;;527.10;115.90;;;10.00;99.90;;;;;;5039324;28;20231;-52
2022/12/25 13:06:38;;;;;;;1504.20;269.23;;;10.10;99.90;;;;;;5017227;28;20316;-52
2022/12/25 13:09:17;;;;;;;475.10;89.73;;;10.00;99.90;;;;;;5045221;28;20296;-53
2022/12/25 13:11:45;;;;;;;461.80;80.83;;;10.10;99.90;;;;;;5044049;28;20205;-51
2022/12/25 13:14:16;;;;;;;1126.17;193.87;;;10.10;99.90;;;;;;5046645;28;20287;-52
2022/12/25 13:16:47;;;;;;;1514.00;290.87;;;10.10;99.90;;;;;;5047975;28;20202;-52
2022/12/25 13:19:20;;;;;;;1999.90;333.33;;;10.10;99.90;;;;;;5047512;28;20788;-52
2022/12/25 13:21:53;;;;;;;913.73;208.73;;;10.10;99.90;;;;;;5047803;28;20675;-53
2022/12/25 13:24:23;;;;;;;599.37;118.33;;;10.10;99.90;;;;;;5035621;28;20617;-52
2022/12/25 13:26:52;;;;;;;652.07;134.33;;;10.10;99.90;;;;;;5047428;28;20299;-52
2022/12/25 13:29:28;;;;;;;1001.13;179.93;;;10.20;99.90;;;;;;5047083;28;20210;-53
2022/12/25 13:31:57;;;;;;;1986.47;283.83;;;10.20;99.90;;;;;;5029367;28;20225;-52
2022/12/25 13:34:31;;;;;;;602.80;109.07;;;10.10;99.90;;;;;;5029982;28;20229;-53
2022/12/25 13:37:00;;;;;;;649.57;117.23;;;10.10;99.90;;;;;;5035650;28;20234;-53
2022/12/25 13:39:28;;;;;;;1551.63;343.90;;;10.10;99.90;;;;;;5034508;28;20678;-52
2022/12/25 13:42:08;;;;;;;950.90;208.23;;;10.10;99.90;;;;;;5046808;28;20627;-53
2022/12/25 13:44:44;;;;;;;509.03;85.57;;;10.20;99.90;;;;;;5046178;28;20316;-52
2022/12/25 13:47:24;;;;;;;1772.30;294.73;;;10.20;99.90;;;;;;5048607;28;20201;-53
2022/12/25 13:49:55;;;;;;;1935.63;303.80;;;10.20;99.90;;;;;;5048282;28;20205;-53
2022/12/25 13:52:32;;;;;;;1376.00;228.03;;;10.20;99.90;;;;;;5048504;28;20256;-51
2022/12/25 13:55:01;;;;;;;869.63;184.23;;;10.10;99.90;;;;;;5048789;28;20262;-53
2022/12/25 13:57:34;;;;;;;1159.60;289.57;;;10.10;99.90;;;;;;5041862;28;20210;-53
2022/12/25 14:00:03;;;;;;;590.73;127.20;;;10.10;99.90;;;;;;5035874;28;20221;-53
2022/12/25 14:02:34;;;;;;;714.17;120.90;;;10.20;99.90;;;;;;5035037;28;20233;-53
2022/12/25 14:05:21;;;;;;;775.07;151.13;;;10.20;99.90;;;;;;5038180;28;20645;-53
2022/12/25 14:07:51;;;;;;;1019.00;137.80;;;10.20;99.90;;;;;;5043127;28;20292;-52
2022/12/25 14:10:20;;;;;;;430.97;86.67;;;10.20;99.90;;;;;;5044217;28;20202;-51
2022/12/25 14:12:50;;;;;;;1201.50;209.20;;;10.20;99.90;;;;;;5047245;28;20672;-52
2022/12/25 14:15:21;;;;;;;494.50;120.70;;;10.20;99.90;;;;;;5044180;28;20237;-52
2022/12/25 14:17:50;;;;;;;199.67;52.03;;;10.20;99.90;;;;;;5039763;28;20244;-52
2022/12/25 14:20:28;;;;;;;807.03;145.87;;;10.20;99.90;;;;;;5030849;28;20241;-52
2022/12/25 14:22:58;;;;;;;988.83;176.87;;;10.20;99.90;;;;;;5040594;28;20229;-53
2022/12/25 14:25:30;;;;;;;1041.67;266.87;;;10.20;99.90;;;;;;5048690;28;20227;-52
2022/12/25 14:27:58;;;;;;;673.10;158.87;;;10.20;99.90;;;;;;5048138;28;20209;-52
2022/12/25 14:30:29;;;;;;;965.07;145.80;;;10.20;99.90;;;;;;5048133;28;20213;-52